createdAt,value
2018-11-06T00:01:48.372Z,11.73
2018-11-06T00:04:16.774Z,11.82
2018-11-06T00:06:45.175Z,11.76
2018-11-06T00:09:13.818Z,11.18
2018-11-06T00:11:42.252Z,10.96
2018-11-06T00:14:10.868Z,11.48
2018-11-06T00:16:39.213Z,11.69
2018-11-06T00:19:07.634Z,11.86
2018-11-06T00:21:36.069Z,10.93
2018-11-06T00:24:04.509Z,11.15
2018-11-06T00:26:32.922Z,11.07
2018-11-06T00:29:01.296Z,11.67
2018-11-06T00:31:29.719Z,11.59
2018-11-06T00:33:58.101Z,10.94
2018-11-06T00:36:26.425Z,11.04
2018-11-06T00:38:54.756Z,11.33
2018-11-06T00:41:23.199Z,11.22
2018-11-06T00:43:51.611Z,11.05
2018-11-06T00:46:20.053Z,11.22
2018-11-06T00:48:48.431Z,11.34
2018-11-06T00:51:16.787Z,11.26
2018-11-06T00:53:45.709Z,11.17
2018-11-06T00:56:14.166Z,11.31
2018-11-06T00:58:42.475Z,11.26
2018-11-06T01:01:10.751Z,11.32
2018-11-06T01:03:44.114Z,11.18
2018-11-06T01:06:12.504Z,10.67
2018-11-06T01:08:40.839Z,10.37
2018-11-06T01:11:09.458Z,10.05
2018-11-06T01:13:37.824Z,10.32
2018-11-06T01:16:06.476Z,10.12
2018-11-06T01:18:34.947Z,9.91
2018-11-06T01:21:03.364Z,10.02
2018-11-06T01:23:31.794Z,9.85
2018-11-06T01:26:00.228Z,9.96
2018-11-06T01:28:28.571Z,9.82
2018-11-06T01:30:56.867Z,10.39
2018-11-06T01:33:25.235Z,10.47
2018-11-06T01:35:53.607Z,10.63
2018-11-06T01:38:22.121Z,10.44
2018-11-06T01:40:51.294Z,10.26
2018-11-06T01:43:19.647Z,10.39
2018-11-06T01:45:47.944Z,10.09
2018-11-06T01:48:16.256Z,10.38
2018-11-06T01:50:44.608Z,10.11
2018-11-06T01:53:12.963Z,10.25
2018-11-06T01:55:41.266Z,10.18
2018-11-06T01:58:09.591Z,10.20
2018-11-06T02:00:37.958Z,9.85
2018-11-06T02:03:06.363Z,10.35
2018-11-06T02:05:34.733Z,10.75
2018-11-06T02:08:03.050Z,10.81
2018-11-06T02:10:31.394Z,10.86
2018-11-06T02:12:59.835Z,10.71
2018-11-06T02:15:28.246Z,10.74
2018-11-06T02:17:56.647Z,10.88
2018-11-06T02:20:25.156Z,10.97
2018-11-06T02:22:53.728Z,10.84
2018-11-06T02:25:22.106Z,10.95
2018-11-06T02:27:50.488Z,11.12
2018-11-06T02:30:18.848Z,11.03
2018-11-06T02:32:47.553Z,10.82
2018-11-06T02:35:15.967Z,10.77
2018-11-06T02:37:44.412Z,10.51
2018-11-06T02:40:14.698Z,10.85
2018-11-06T02:42:43.086Z,10.59
2018-11-06T02:45:12.218Z,10.82
2018-11-06T02:47:41.367Z,10.85
2018-11-06T02:50:10.529Z,10.95
2018-11-06T02:52:38.900Z,10.38
2018-11-06T02:55:07.728Z,10.33
2018-11-06T02:57:36.165Z,10.09
2018-11-06T03:00:04.595Z,10.17
2018-11-06T03:02:33.024Z,10.06
2018-11-06T03:05:01.289Z,9.95
2018-11-06T03:07:29.729Z,9.81
2018-11-06T03:09:58.081Z,9.82
2018-11-06T03:12:26.451Z,9.82
2018-11-06T03:14:54.932Z,9.76
2018-11-06T03:17:23.264Z,9.87
2018-11-06T03:19:51.610Z,9.88
2018-11-06T03:22:19.963Z,9.56
2018-11-06T03:24:48.304Z,9.38
2018-11-06T03:27:17.968Z,9.43
2018-11-06T03:29:47.251Z,9.46
2018-11-06T03:32:16.111Z,9.43
2018-11-06T03:34:44.612Z,9.10
2018-11-06T03:37:12.951Z,9.07
2018-11-06T03:39:41.276Z,8.84
2018-11-06T03:42:09.653Z,9.23
2018-11-06T03:44:37.940Z,9.65
2018-11-06T03:47:06.286Z,9.74
2018-11-06T03:49:34.549Z,9.59
2018-11-06T03:52:02.964Z,9.87
2018-11-06T03:54:31.355Z,9.60
2018-11-06T03:56:59.800Z,9.82
2018-11-06T03:59:28.107Z,9.50
2018-11-06T04:01:56.497Z,9.76
2018-11-06T04:04:24.836Z,9.51
2018-11-06T04:06:53.224Z,9.50
2018-11-06T04:09:21.652Z,9.35
2018-11-06T04:11:50.525Z,9.26
2018-11-06T04:14:18.819Z,8.67
2018-11-06T04:16:47.155Z,9.05
2018-11-06T04:19:15.519Z,9.08
2018-11-06T04:21:43.840Z,9.55
2018-11-06T04:24:13.386Z,9.40
2018-11-06T04:26:41.675Z,9.36
2018-11-06T04:29:10.504Z,9.06
2018-11-06T04:31:39.567Z,9.23
2018-11-06T04:34:08.599Z,9.28
2018-11-06T04:36:37.070Z,9.37
2018-11-06T04:39:08.059Z,9.46
2018-11-06T04:41:36.364Z,8.93
2018-11-06T04:44:05.186Z,8.91
2018-11-06T04:46:33.566Z,9.19
2018-11-06T04:49:01.851Z,9.41
2018-11-06T04:51:30.284Z,9.50
2018-11-06T04:53:59.518Z,9.33
2018-11-06T04:56:28.641Z,9.37
2018-11-06T04:58:56.999Z,9.47
2018-11-06T05:01:25.549Z,9.45
2018-11-06T05:03:53.876Z,9.50
2018-11-06T05:06:22.210Z,9.44
2018-11-06T05:08:50.513Z,9.42
2018-11-06T05:11:18.869Z,9.36
2018-11-06T05:13:47.194Z,9.51
2018-11-06T05:16:15.531Z,9.38
2018-11-06T05:18:43.912Z,9.59
2018-11-06T05:21:12.275Z,9.57
2018-11-06T05:23:40.687Z,9.39
2018-11-06T05:26:09.045Z,9.50
2018-11-06T05:28:37.445Z,9.57
2018-11-06T05:31:05.883Z,9.47
2018-11-06T05:33:34.172Z,9.47
2018-11-06T05:36:02.516Z,9.63
2018-11-06T05:38:30.856Z,9.46
2018-11-06T05:41:01.637Z,9.44
2018-11-06T05:43:30.025Z,9.22
2018-11-06T05:45:58.429Z,9.04
2018-11-06T05:48:26.900Z,9.07
2018-11-06T05:50:55.502Z,8.97
2018-11-06T05:53:24.076Z,8.92
2018-11-06T05:55:52.394Z,8.76
2018-11-06T05:58:20.755Z,8.83
2018-11-06T06:00:49.172Z,9.14
2018-11-06T06:03:17.548Z,9.26
2018-11-06T06:05:45.979Z,9.50
2018-11-06T06:08:14.333Z,9.46
2018-11-06T06:10:42.863Z,9.38
2018-11-06T06:13:11.213Z,9.34
2018-11-06T06:15:39.517Z,9.16
2018-11-06T06:18:07.827Z,8.04
2018-11-06T06:20:36.176Z,7.35
2018-11-06T06:23:04.541Z,7.82
2018-11-06T06:25:32.855Z,8.16
2018-11-06T06:28:01.264Z,8.25
2018-11-06T06:30:29.595Z,8.54
2018-11-06T06:32:57.912Z,8.66
2018-11-06T06:35:26.244Z,8.82
2018-11-06T06:37:54.543Z,8.07
2018-11-06T06:40:22.889Z,8.28
2018-11-06T06:42:51.163Z,8.71
2018-11-06T06:45:19.969Z,8.96
2018-11-06T06:47:48.335Z,8.79
2018-11-06T06:50:18.841Z,8.95
2018-11-06T06:52:47.864Z,9.00
2018-11-06T06:55:16.874Z,9.07
2018-11-06T06:57:46.225Z,8.95
2018-11-06T07:00:16.196Z,9.16
2018-11-06T07:02:44.503Z,9.19
2018-11-06T07:05:14.241Z,9.12
2018-11-06T07:07:43.279Z,9.02
2018-11-06T07:10:13.436Z,9.06
2018-11-06T07:12:42.975Z,9.17
2018-11-06T07:15:13.640Z,9.12
2018-11-06T07:17:42.365Z,9.22
2018-11-06T07:20:13.029Z,9.35
2018-11-06T07:22:41.431Z,9.20
2018-11-06T07:25:10.730Z,9.40
2018-11-06T07:27:39.874Z,9.33
2018-11-06T07:30:10.133Z,9.27
2018-11-06T07:32:38.792Z,9.49
2018-11-06T07:35:08.172Z,9.75
2018-11-06T07:37:36.403Z,9.64
2018-11-06T07:40:05.243Z,9.54
2018-11-06T07:42:33.641Z,9.63
2018-11-06T07:45:01.964Z,9.79
2018-11-06T07:47:30.731Z,9.89
2018-11-06T07:49:59.134Z,9.84
2018-11-06T07:52:27.557Z,9.66
2018-11-06T07:54:55.916Z,9.76
2018-11-06T07:57:24.275Z,9.62
2018-11-06T07:59:52.769Z,9.92
2018-11-06T08:02:27.571Z,10.03
2018-11-06T08:04:55.879Z,10.05
2018-11-06T08:07:24.231Z,10.33
2018-11-06T08:09:52.783Z,10.39
2018-11-06T08:12:21.164Z,10.33
2018-11-06T08:14:49.528Z,10.30
2018-11-06T08:17:17.766Z,10.45
2018-11-06T08:19:46.160Z,10.39
2018-11-06T08:22:14.490Z,10.50
2018-11-06T08:24:42.884Z,10.72
2018-11-06T08:27:11.217Z,10.61
2018-11-06T08:29:39.536Z,10.37
2018-11-06T08:32:08.243Z,10.88
2018-11-06T08:34:36.291Z,11.27
2018-11-06T08:37:04.759Z,11.48
2018-11-06T08:39:33.080Z,11.60
2018-11-06T08:42:01.441Z,11.95
2018-11-06T08:44:29.801Z,11.93
2018-11-06T08:46:58.164Z,12.02
2018-11-06T08:49:26.576Z,12.11
2018-11-06T08:51:55.544Z,12.13
2018-11-06T08:54:23.916Z,12.18
2018-11-06T08:56:52.214Z,12.38
2018-11-06T08:59:20.595Z,12.43
2018-11-06T09:01:49.026Z,12.30
2018-11-06T09:04:17.350Z,12.52
2018-11-06T09:06:45.692Z,12.41
2018-11-06T09:09:14.023Z,12.49
2018-11-06T09:11:42.315Z,12.53
2018-11-06T09:14:10.644Z,12.84
2018-11-06T09:16:39.024Z,12.27
2018-11-06T09:19:07.296Z,12.65
2018-11-06T09:21:35.654Z,12.73
2018-11-06T09:24:04.132Z,12.67
2018-11-06T09:26:32.453Z,12.87
2018-11-06T09:29:00.768Z,13.02
2018-11-06T09:31:29.770Z,13.08
2018-11-06T09:33:58.696Z,13.13
2018-11-06T09:36:27.524Z,13.45
2018-11-06T09:38:55.924Z,13.45
2018-11-06T09:41:24.606Z,13.42
2018-11-06T09:43:53.192Z,13.37
2018-11-06T09:46:21.671Z,13.48
2018-11-06T09:48:50.000Z,13.66
2018-11-06T09:51:18.327Z,13.57
2018-11-06T09:53:46.724Z,13.62
2018-11-06T09:56:15.022Z,13.85
2018-11-06T09:58:43.422Z,13.87
2018-11-06T10:01:11.744Z,13.90
2018-11-06T10:03:40.198Z,13.75
2018-11-06T10:06:08.724Z,13.90
2018-11-06T10:08:37.066Z,13.83
2018-11-06T10:11:05.424Z,13.96
2018-11-06T10:13:33.854Z,14.29
2018-11-06T10:16:02.243Z,14.35
2018-11-06T10:18:30.669Z,14.04
2018-11-06T10:20:59.030Z,14.42
2018-11-06T10:23:27.426Z,14.38
2018-11-06T10:25:55.755Z,14.19
2018-11-06T10:28:24.062Z,14.43
2018-11-06T10:30:53.222Z,14.09
2018-11-06T10:33:21.556Z,14.41
2018-11-06T10:35:49.889Z,14.31
2018-11-06T10:38:18.221Z,14.62
2018-11-06T10:40:46.585Z,14.83
2018-11-06T10:43:14.877Z,14.64
2018-11-06T10:45:43.263Z,15.03
2018-11-06T10:48:11.643Z,15.25
2018-11-06T10:50:40.017Z,15.52
2018-11-06T10:53:08.348Z,15.37
2018-11-06T10:55:36.768Z,15.30
2018-11-06T10:58:05.563Z,15.16
2018-11-06T11:00:39.071Z,15.28
2018-11-06T11:03:11.731Z,15.26
2018-11-06T11:05:40.736Z,15.16
2018-11-06T11:08:08.988Z,15.33
2018-11-06T11:10:37.369Z,15.51
2018-11-06T11:13:05.919Z,15.23
2018-11-06T11:15:34.228Z,15.64
2018-11-06T11:18:02.609Z,15.35
2018-11-06T11:20:30.989Z,15.19
2018-11-06T11:22:59.373Z,15.61
2018-11-06T11:25:27.745Z,15.48
2018-11-06T11:27:56.055Z,15.47
2018-11-06T11:30:24.423Z,15.25
2018-11-06T11:32:52.752Z,15.23
2018-11-06T11:35:21.052Z,15.59
2018-11-06T11:37:56.164Z,15.49
2018-11-06T11:40:24.517Z,15.50
2018-11-06T11:42:52.872Z,15.82
2018-11-06T11:45:21.229Z,15.89
2018-11-06T11:47:49.636Z,15.89
2018-11-06T11:50:17.989Z,15.70
2018-11-06T11:52:46.307Z,15.73
2018-11-06T11:55:14.612Z,15.87
2018-11-06T11:57:42.994Z,16.47
2018-11-06T12:00:14.455Z,16.93
2018-11-06T12:02:42.936Z,16.88
2018-11-06T12:05:11.848Z,16.69
2018-11-06T12:07:40.368Z,16.94
2018-11-06T12:10:10.119Z,17.10
2018-11-06T12:12:38.584Z,16.72
2018-11-06T12:15:10.275Z,17.03
2018-11-06T12:17:38.670Z,16.99
2018-11-06T12:20:07.008Z,16.78
2018-11-06T12:22:35.405Z,16.72
2018-11-06T12:25:03.895Z,16.74
2018-11-06T12:27:32.178Z,16.57
2018-11-06T12:30:00.561Z,16.61
2018-11-06T12:32:28.892Z,16.55
2018-11-06T12:34:57.255Z,16.67
2018-11-06T12:37:25.616Z,17.01
2018-11-06T12:39:53.935Z,16.88
2018-11-06T12:42:23.875Z,16.95
2018-11-06T12:44:52.282Z,17.12
2018-11-06T12:47:20.643Z,17.36
2018-11-06T12:49:48.937Z,17.35
2018-11-06T12:52:17.338Z,17.25
2018-11-06T12:54:45.608Z,17.05
2018-11-06T12:57:13.936Z,17.02
2018-11-06T12:59:42.248Z,17.04
2018-11-06T13:02:10.578Z,17.18
2018-11-06T13:04:38.902Z,17.07
2018-11-06T13:07:07.248Z,17.12
2018-11-06T13:09:35.575Z,17.25
2018-11-06T13:12:03.921Z,17.47
2018-11-06T13:14:32.199Z,17.75
2018-11-06T13:17:00.541Z,17.67
2018-11-06T13:19:28.804Z,17.64
2018-11-06T13:21:57.120Z,17.74
2018-11-06T13:24:25.444Z,17.96
2018-11-06T13:26:53.755Z,18.41
2018-11-06T13:29:22.148Z,18.54
2018-11-06T13:31:50.531Z,18.74
2018-11-06T13:34:18.867Z,19.53
2018-11-06T13:36:47.225Z,19.56
2018-11-06T13:39:15.601Z,20.13
2018-11-06T13:41:44.252Z,20.73
2018-11-06T13:44:13.005Z,20.93
2018-11-06T13:46:41.109Z,19.81
2018-11-06T13:49:09.477Z,19.92
2018-11-06T13:51:37.822Z,19.65
2018-11-06T13:54:06.275Z,19.74
2018-11-06T13:56:34.632Z,19.85
2018-11-06T13:59:02.947Z,20.17
2018-11-06T14:01:31.270Z,20.39
2018-11-06T14:03:59.670Z,20.84
2018-11-06T14:06:28.080Z,19.96
2018-11-06T14:08:56.384Z,19.23
2018-11-06T14:11:24.752Z,19.33
2018-11-06T14:13:53.135Z,19.31
2018-11-06T14:16:21.575Z,19.31
2018-11-06T14:18:49.931Z,19.22
2018-11-06T14:21:18.306Z,19.28
2018-11-06T14:23:46.616Z,19.11
2018-11-06T14:26:14.962Z,18.82
2018-11-06T14:28:43.246Z,18.12
2018-11-06T14:31:11.588Z,18.35
2018-11-06T14:33:39.920Z,18.12
2018-11-06T14:36:08.310Z,17.76
2018-11-06T14:38:36.669Z,17.78
2018-11-06T14:41:05.188Z,17.87
2018-11-06T14:43:33.595Z,18.01
2018-11-06T14:46:02.052Z,17.92
2018-11-06T14:48:30.489Z,17.73
2018-11-06T14:50:58.770Z,17.61
2018-11-06T14:53:27.199Z,17.60
2018-11-06T14:55:55.533Z,17.82
2018-11-06T14:58:23.904Z,17.65
2018-11-06T15:00:52.279Z,17.44
2018-11-06T15:03:28.665Z,17.23
2018-11-06T15:06:02.987Z,17.29
2018-11-06T15:08:31.489Z,17.34
2018-11-06T15:10:59.870Z,17.29
2018-11-06T15:13:28.274Z,17.09
2018-11-06T15:15:56.584Z,17.07
2018-11-06T15:18:24.898Z,17.09
2018-11-06T15:20:53.292Z,16.54
2018-11-06T15:23:21.622Z,16.58
2018-11-06T15:25:49.972Z,16.58
2018-11-06T15:28:18.324Z,16.35
2018-11-06T15:30:46.687Z,16.47
2018-11-06T15:33:15.068Z,16.21
2018-11-06T15:35:43.456Z,16.11
2018-11-06T15:38:11.877Z,16.04
2018-11-06T15:40:40.327Z,16.17
2018-11-06T15:43:08.703Z,16.14
2018-11-06T15:45:37.061Z,16.10
2018-11-06T15:48:05.520Z,15.88
2018-11-06T15:50:34.013Z,15.85
2018-11-06T15:53:02.555Z,15.92
2018-11-06T15:55:30.929Z,15.81
2018-11-06T15:57:59.303Z,15.73
2018-11-06T16:00:27.676Z,15.75
2018-11-06T16:02:56.022Z,15.77
2018-11-06T16:05:24.429Z,15.79
2018-11-06T16:07:52.763Z,15.56
2018-11-06T16:10:22.491Z,15.36
2018-11-06T16:12:50.946Z,15.51
2018-11-06T16:15:19.410Z,15.36
2018-11-06T16:17:47.848Z,15.39
2018-11-06T16:20:17.687Z,15.26
2018-11-06T16:22:46.043Z,15.20
2018-11-06T16:25:15.563Z,15.24
2018-11-06T16:27:44.319Z,15.22
2018-11-06T16:30:15.678Z,15.19
2018-11-06T16:32:44.181Z,15.09
2018-11-06T16:35:14.729Z,14.81
2018-11-06T16:37:43.379Z,14.76
2018-11-06T16:40:12.376Z,14.27
2018-11-06T16:42:41.495Z,13.98
2018-11-06T16:45:12.527Z,13.95
2018-11-06T16:47:41.139Z,13.59
2018-11-06T16:50:11.316Z,13.58
2018-11-06T16:52:39.900Z,13.53
2018-11-06T16:55:08.761Z,13.32
2018-11-06T16:57:37.707Z,12.84
2018-11-06T17:00:07.778Z,12.98
2018-11-06T17:02:36.149Z,12.99
2018-11-06T17:05:04.764Z,12.70
2018-11-06T17:07:33.202Z,12.87
2018-11-06T17:10:01.646Z,13.01
2018-11-06T17:12:30.024Z,12.72
2018-11-06T17:14:58.452Z,12.71
2018-11-06T17:17:27.002Z,12.77
2018-11-06T17:19:55.371Z,12.71
2018-11-06T17:22:23.848Z,12.81
2018-11-06T17:24:53.553Z,12.67
2018-11-06T17:27:21.968Z,12.99
2018-11-06T17:29:51.273Z,12.87
2018-11-06T17:32:19.683Z,12.76
2018-11-06T17:34:48.098Z,12.70
2018-11-06T17:37:16.520Z,12.55
2018-11-06T17:39:44.946Z,12.81
2018-11-06T17:42:13.421Z,12.70
2018-11-06T17:44:42.487Z,12.61
2018-11-06T17:47:10.878Z,12.77
2018-11-06T17:49:39.377Z,12.66
2018-11-06T17:52:07.814Z,12.52
2018-11-06T17:54:36.232Z,12.55
2018-11-06T17:57:04.688Z,12.73
2018-11-06T17:59:33.158Z,12.56
2018-11-06T18:02:01.566Z,12.68
2018-11-06T18:04:30.152Z,12.65
2018-11-06T18:06:58.394Z,12.62
2018-11-06T18:09:26.699Z,13.21
2018-11-06T18:11:55.355Z,13.24
2018-11-06T18:14:23.759Z,13.26
2018-11-06T18:16:52.234Z,12.93
2018-11-06T18:19:20.764Z,12.89
2018-11-06T18:21:49.273Z,12.96
2018-11-06T18:24:17.603Z,13.03
2018-11-06T18:26:46.037Z,12.82
2018-11-06T18:29:14.421Z,12.81
2018-11-06T18:31:42.802Z,12.74
2018-11-06T18:34:11.236Z,12.75
2018-11-06T18:36:39.628Z,12.78
2018-11-06T18:39:11.593Z,12.70
2018-11-06T18:41:40.029Z,12.74
2018-11-06T18:44:08.887Z,12.82
2018-11-06T18:46:37.297Z,12.88
2018-11-06T18:49:06.148Z,12.59
2018-11-06T18:51:34.624Z,11.96
2018-11-06T18:54:04.203Z,11.88
2018-11-06T18:56:32.652Z,11.86
2018-11-06T18:59:01.103Z,11.83
2018-11-06T19:01:29.546Z,11.68
2018-11-06T19:03:57.964Z,11.63
2018-11-06T19:06:26.313Z,11.57
2018-11-06T19:08:54.727Z,11.70
2018-11-06T19:11:23.129Z,11.74
2018-11-06T19:13:51.547Z,11.60
2018-11-06T19:16:19.960Z,11.64
2018-11-06T19:18:48.287Z,11.23
2018-11-06T19:21:16.719Z,11.19
2018-11-06T19:23:45.172Z,11.39
2018-11-06T19:26:13.630Z,11.24
2018-11-06T19:28:42.079Z,11.53
2018-11-06T19:31:10.477Z,11.04
2018-11-06T19:33:38.831Z,11.02
2018-11-06T19:36:07.313Z,11.12
2018-11-06T19:38:36.015Z,10.87
2018-11-06T19:41:04.356Z,11.07
2018-11-06T19:43:32.667Z,10.76
2018-11-06T19:46:01.084Z,11.00
2018-11-06T19:48:29.480Z,10.83
2018-11-06T19:50:57.873Z,10.71
2018-11-06T19:53:26.326Z,10.54
2018-11-06T19:55:54.670Z,10.80
2018-11-06T19:58:23.063Z,10.50
2018-11-06T20:00:51.452Z,10.66
2018-11-06T20:03:19.820Z,10.86
2018-11-06T20:05:48.428Z,11.00
2018-11-06T20:08:16.812Z,10.72
2018-11-06T20:10:45.224Z,10.91
2018-11-06T20:13:13.648Z,10.82
2018-11-06T20:15:42.104Z,10.86
2018-11-06T20:18:10.498Z,10.76
2018-11-06T20:20:39.789Z,10.86
2018-11-06T20:23:09.723Z,10.88
2018-11-06T20:25:38.139Z,10.80
2018-11-06T20:28:06.550Z,10.70
2018-11-06T20:30:34.976Z,11.05
2018-11-06T20:33:03.516Z,10.89
2018-11-06T20:35:31.896Z,10.74
2018-11-06T20:38:00.446Z,10.91
2018-11-06T20:40:28.764Z,10.89
2018-11-06T20:42:57.235Z,11.00
2018-11-06T20:45:25.509Z,10.96
2018-11-06T20:47:54.044Z,11.07
2018-11-06T20:50:23.705Z,11.00
2018-11-06T20:52:52.154Z,10.96
2018-11-06T20:55:20.582Z,10.90
2018-11-06T20:57:49.015Z,11.08
2018-11-06T21:00:28.160Z,11.26
2018-11-06T21:02:57.984Z,10.87
2018-11-06T21:05:26.610Z,10.97
2018-11-06T21:07:55.131Z,10.87
2018-11-06T21:10:25.650Z,10.85
2018-11-06T21:12:54.162Z,10.85
2018-11-06T21:15:22.738Z,10.77
2018-11-06T21:17:51.242Z,10.93
2018-11-06T21:20:19.769Z,11.18
2018-11-06T21:22:48.135Z,11.32
2018-11-06T21:25:16.559Z,11.19
2018-11-06T21:27:45.396Z,11.14
2018-11-06T21:30:15.784Z,10.88
2018-11-06T21:32:45.461Z,11.02
2018-11-06T21:35:13.877Z,10.97
2018-11-06T21:37:42.249Z,10.97
2018-11-06T21:40:13.219Z,10.99
2018-11-06T21:42:42.331Z,11.25
2018-11-06T21:45:11.829Z,11.15
2018-11-06T21:47:40.864Z,11.16
2018-11-06T21:50:10.532Z,10.95
2018-11-06T21:52:38.993Z,11.15
2018-11-06T21:55:08.483Z,11.00
2018-11-06T21:57:36.995Z,11.25
2018-11-06T22:00:07.645Z,10.99
2018-11-06T22:02:36.151Z,11.08
2018-11-06T22:05:05.756Z,10.88
2018-11-06T22:07:34.235Z,10.87
2018-11-06T22:10:02.705Z,10.92
2018-11-06T22:12:31.197Z,11.07
2018-11-06T22:14:59.661Z,11.16
2018-11-06T22:17:28.087Z,11.10
2018-11-06T22:19:57.451Z,10.97
2018-11-06T22:22:25.978Z,11.05
2018-11-06T22:24:54.449Z,11.06
2018-11-06T22:27:22.889Z,10.96
2018-11-06T22:29:51.298Z,10.86
2018-11-06T22:32:19.902Z,10.78
2018-11-06T22:34:48.178Z,11.00
2018-11-06T22:37:23.211Z,11.11
2018-11-06T22:39:51.624Z,10.74
2018-11-06T22:42:19.957Z,10.87
2018-11-06T22:44:48.330Z,10.89
2018-11-06T22:47:16.747Z,10.60
2018-11-06T22:49:45.177Z,10.72
2018-11-06T22:52:16.345Z,10.82
2018-11-06T22:54:44.759Z,10.85
2018-11-06T22:57:13.186Z,10.48
2018-11-06T22:59:41.612Z,10.75
2018-11-06T23:02:10.087Z,10.56
2018-11-06T23:04:38.559Z,10.34
2018-11-06T23:07:07.875Z,10.51
2018-11-06T23:09:36.179Z,10.56
2018-11-06T23:12:04.716Z,10.68
2018-11-06T23:14:33.276Z,10.54
2018-11-06T23:17:01.865Z,10.44
2018-11-06T23:19:30.296Z,10.79
2018-11-06T23:21:58.711Z,10.48
2018-11-06T23:24:27.996Z,10.61
2018-11-06T23:26:56.364Z,10.78
2018-11-06T23:29:24.807Z,11.03
2018-11-06T23:31:53.197Z,10.97
2018-11-06T23:34:21.645Z,11.12
2018-11-06T23:36:50.101Z,10.95
2018-11-06T23:39:18.515Z,10.77
2018-11-06T23:41:46.976Z,10.98
2018-11-06T23:44:15.418Z,10.86
2018-11-06T23:46:43.857Z,10.87
2018-11-06T23:49:12.490Z,10.68
2018-11-06T23:51:40.844Z,10.72
2018-11-06T23:54:09.309Z,10.88
2018-11-06T23:56:37.696Z,10.81
2018-11-06T23:59:06.330Z,10.55
